Suomigracht — PHBT — position and weather

sailwx.info

Track history (hours):
 
Tides and Currents Weather Stations Pressure Air Temp Water Temp Dewpoint Dewpoint Depression Visibility Wind Speed Wind Dir Waves Ship Positions

Suomigracht

Last reported at 2014-Aug-11 10:28 UTC. Time now 2014-Aug-23 11:28 UTC.
Position N 29°57' W 090°01'.
Warning: this ship's position is 12 days out of date.

Length 173 m; beam 26 m.

Type: Cargo ship. MMSI: 246100000.

Date/timePositionNaut miles runAvg speedWind from/ knotsBaromVisibWave heightAir tempDewpointWater temp
2014-Aug-11 10:28N 29°57' W 090°01'  
2014-Aug-05 03:33N 29°35' W 094°56'1010.4
2014-Aug-05 02:33N 29°44' W 095°03'6 6.0
2014-Aug-05 01:33N 29°44' W 095°09'5 4.8
2014-Aug-05 00:33N 29°43' W 095°15'1 1.0
2014-Aug-04 23:31N 29°44' W 095°16'0 0.0
2014-Aug-04 22:31N 29°44' W 095°16'0 0.0
2014-Aug-04 21:31N 29°44' W 095°16'0 0.0
2014-Aug-04 20:31N 29°44' W 095°16'0 0.0
2014-Aug-04 19:31N 29°44' W 095°16'0 0.0
2014-Aug-04 18:28N 29°44' W 095°16'0 0.0
2014-Aug-04 17:31N 29°44' W 095°16'0 0.0
2014-Aug-04 16:31N 29°44' W 095°16'0 0.0
2014-Aug-04 15:31N 29°44' W 095°16'0 0.0
2014-Aug-04 14:28N 29°44' W 095°16'0 0.0
2014-Aug-04 13:31N 29°44' W 095°16'0 0.0
2014-Aug-04 11:28N 29°44' W 095°16'0 0.0
2014-Aug-03 11:33N 29°44' W 095°16'0 0.0
2014-Aug-03 10:33N 29°44' W 095°16'0 0.0
2014-Aug-03 09:33N 29°44' W 095°16'0 0.0
2014-Aug-03 08:33N 29°44' W 095°16'0 0.0
2014-Aug-03 07:33N 29°44' W 095°16'0 0.0
2014-Aug-03 06:33N 29°44' W 095°16'0 0.0
2014-Aug-03 05:33N 29°44' W 095°16'0 0.0
2014-Aug-03 04:33N 29°44' W 095°16'0 0.0
2014-Aug-03 03:33N 29°44' W 095°16'0 0.0
2014-Aug-03 02:33N 29°44' W 095°16'0 0.0
2014-Aug-03 01:30N 29°44' W 095°16'0 0.0
2014-Aug-03 00:33N 29°44' W 095°16'0 0.0
2014-Aug-02 23:33N 29°44' W 095°16'0 0.0
2014-Aug-02 22:33N 29°44' W 095°16'0 0.0
2014-Aug-02 21:33N 29°44' W 095°16'0 0.0
2014-Aug-02 20:33N 29°44' W 095°16'0 0.0
2014-Aug-02 19:32N 29°44' W 095°16'0 0.5
2014-Aug-02 18:34N 29°44' W 095°16'4 4.3
2014-Aug-02 17:34N 29°45' W 095°12'6 5.6
2014-Aug-02 16:33N 29°46' W 095°05'8 7.5
2014-Aug-02 15:33N 29°41' W 094°59'1313.3
2014-Aug-02 14:33N 29°29' W 094°52'  
Track history (hours):
 
Tides and Currents Weather Stations Pressure Air Temp Water Temp Dewpoint Dewpoint Depression Visibility Wind Speed Wind Dir Waves Ship Positions

Suomigracht

Last reported at 2014-Aug-11 10:28 UTC. Time now 2014-Aug-23 11:28 UTC.
Position N 29°57' W 090°01'.
Warning: this ship's position is 12 days out of date.

Length 173 m; beam 26 m.

Type: Cargo ship. MMSI: 246100000.

Date/timePositionNaut miles runAvg speedWind from/ knotsBaromVisibWave heightAir tempDewpointWater temp
2014-Aug-11 10:28N 29°57' W 090°01'  
2014-Aug-05 03:33N 29°35' W 094°56'1010.4
2014-Aug-05 02:33N 29°44' W 095°03'6 6.0
2014-Aug-05 01:33N 29°44' W 095°09'5 4.8
2014-Aug-05 00:33N 29°43' W 095°15'1 1.0
2014-Aug-04 23:31N 29°44' W 095°16'0 0.0
2014-Aug-04 22:31N 29°44' W 095°16'0 0.0
2014-Aug-04 21:31N 29°44' W 095°16'0 0.0
2014-Aug-04 20:31N 29°44' W 095°16'0 0.0
2014-Aug-04 19:31N 29°44' W 095°16'0 0.0
2014-Aug-04 18:28N 29°44' W 095°16'0 0.0
2014-Aug-04 17:31N 29°44' W 095°16'0 0.0
2014-Aug-04 16:31N 29°44' W 095°16'0 0.0
2014-Aug-04 15:31N 29°44' W 095°16'0 0.0
2014-Aug-04 14:28N 29°44' W 095°16'0 0.0
2014-Aug-04 13:31N 29°44' W 095°16'0 0.0
2014-Aug-04 11:28N 29°44' W 095°16'0 0.0
2014-Aug-03 11:33N 29°44' W 095°16'0 0.0
2014-Aug-03 10:33N 29°44' W 095°16'0 0.0
2014-Aug-03 09:33N 29°44' W 095°16'0 0.0
2014-Aug-03 08:33N 29°44' W 095°16'0 0.0
2014-Aug-03 07:33N 29°44' W 095°16'0 0.0
2014-Aug-03 06:33N 29°44' W 095°16'0 0.0
2014-Aug-03 05:33N 29°44' W 095°16'0 0.0
2014-Aug-03 04:33N 29°44' W 095°16'0 0.0
2014-Aug-03 03:33N 29°44' W 095°16'0 0.0
2014-Aug-03 02:33N 29°44' W 095°16'0 0.0
2014-Aug-03 01:30N 29°44' W 095°16'0 0.0
2014-Aug-03 00:33N 29°44' W 095°16'0 0.0
2014-Aug-02 23:33N 29°44' W 095°16'0 0.0
2014-Aug-02 22:33N 29°44' W 095°16'0 0.0
2014-Aug-02 21:33N 29°44' W 095°16'0 0.0
2014-Aug-02 20:33N 29°44' W 095°16'0 0.0
2014-Aug-02 19:32N 29°44' W 095°16'0 0.5
2014-Aug-02 18:34N 29°44' W 095°16'4 4.3
2014-Aug-02 17:34N 29°45' W 095°12'6 5.6
2014-Aug-02 16:33N 29°46' W 095°05'8 7.5
2014-Aug-02 15:33N 29°41' W 094°59'1313.3
2014-Aug-02 14:33N 29°29' W 094°52'  

Dump ship's entire track history